SM6PGP-2 Kungsbacka SE current weather conditions

sailwx.info

Wind from 135 at 1 knots gusting 2

Air temperature 13.3° C
Dewpoint 12.7° C

Last reported at 2019-Jun-27 00:55 UTC.
Time now 2019-Jun-27 01:59 UTC

Location: N 57°28' E 012°05'.
View on Google Maps.

See reports from other nearby stations

  
Tides and Currents Weather Stations Pressure Air Temp Water Temp Dewpoint Dewpoint Depression Visibility Wind Speed Wind Dir Waves Ship Positions
date/time (UTC)wind fromknots sea level pressurealtimeterstation pressurevisibilityair tempwater tempwave heightnotes
2019-Jun-27 01:05 180 0 gusting 0 13.3
2019-Jun-27 01:00 135 0 gusting 2 13.3
2019-Jun-27 00:55 135 1 gusting 2 13.3
2019-Jun-27 00:40 337 0 gusting 1 13.9
2019-Jun-27 00:34 337 0 gusting 1 13.9
2019-Jun-27 00:19 180 1 gusting 2 13.9
2019-Jun-27 00:14 022 1 gusting 3 13.9
2019-Jun-27 00:09 045 1 gusting 2 13.9
2019-Jun-27 00:04 157 0 gusting 2 13.9
2019-Jun-26 23:59 135 1 gusting 2 13.9
2019-Jun-26 23:43 045 1 gusting 2 14.4
2019-Jun-26 23:38 045 0 gusting 3 14.4
2019-Jun-26 23:33 045 2 gusting 2 14.4
2019-Jun-26 23:28 045 1 gusting 3 14.4
2019-Jun-26 23:23 045 2 gusting 3 14.4
2019-Jun-26 23:18 337 2 gusting 3 14.4
2019-Jun-26 23:13 337 2 gusting 4 14.4
2019-Jun-26 23:08 270 0 gusting 2 14.4
2019-Jun-26 23:03 337 15.0
2019-Jun-26 22:58 045 2 gusting 5 15.0
2019-Jun-26 12:07 270 13 gusting 13 26.1
2019-Jun-26 12:01 283 7 gusting 15 25.6
2019-Jun-26 11:56 270 19 gusting 22 26.1
2019-Jun-26 11:51 270 11 gusting 18 26.1
2019-Jun-26 11:46 270 12 gusting 16 26.1
2019-Jun-26 11:36 270 5 gusting 13 25.6
2019-Jun-26 11:31 270 13 gusting 13 25.6
2019-Jun-26 11:26 270 9 gusting 14 25.0
2019-Jun-26 11:21 270 11 gusting 13 25.6
2019-Jun-26 11:16 288 5 gusting 13 25.0
2019-Jun-26 11:11 270 12 gusting 21 25.6
2019-Jun-26 11:06 297 13 gusting 16 26.1
2019-Jun-26 10:55 270 9 gusting 10 26.1
2019-Jun-26 10:35 283 6 gusting 10 26.1
2019-Jun-26 10:30 270 7 gusting 7 25.6
2019-Jun-26 10:25 270 6 gusting 6 25.0
2019-Jun-26 10:20 270 6 gusting 8 25.0
2019-Jun-26 10:15 270 7 gusting 8 25.0
2019-Jun-26 10:10 270 4 gusting 8 25.0
2019-Jun-26 10:04 283 4 gusting 9 25.0
2019-Jun-26 09:59 337 5 gusting 8 24.4
2019-Jun-26 09:54 270 5 gusting 9 24.4
2019-Jun-26 09:49 270 5 gusting 8 24.4
2019-Jun-26 09:44 270 2 gusting 7 23.9
2019-Jun-26 09:39 270 1 gusting 11 23.9
2019-Jun-26 09:34 270 4 gusting 6 23.9
2019-Jun-26 09:29 270 6 gusting 6 23.3
2019-Jun-26 09:24 270 6 gusting 7 23.3
2019-Jun-26 09:19 288 1 gusting 6 22.8
2019-Jun-26 09:14 270 5 gusting 5 22.8
2019-Jun-26 09:09 270 1 gusting 6 22.8
2019-Jun-26 09:03 288 3 gusting 5 23.3
2019-Jun-26 08:58 288 5 gusting 6 23.3
2019-Jun-26 08:53 337 1 gusting 4 23.9
2019-Jun-26 08:48 045 2 gusting 6 23.9
2019-Jun-26 08:43 320 4 gusting 6 24.4
2019-Jun-26 08:38 031 2 gusting 2 24.4
2019-Jun-26 08:33 337 1 gusting 4 23.9
2019-Jun-26 08:28 270 1 gusting 2 23.3
2019-Jun-26 08:23 270 1 gusting 3 22.8
2019-Jun-26 08:18 337 1 gusting 4 22.8
2019-Jun-26 08:13 045 4 gusting 6 23.3
2019-Jun-26 08:07 045 4 gusting 6 23.3
2019-Jun-26 08:02 045 3 gusting 6 23.3
2019-Jun-26 07:57 022 5 gusting 6 23.3
2019-Jun-26 05:15 135 6 gusting 6 21.7
2019-Jun-26 05:09 135 5 gusting 6 22.2
2019-Jun-26 05:04 135 2 gusting 3 22.8
2019-Jun-26 04:59 135 21.7
2019-Jun-26 04:54 135 21.1
2019-Jun-26 04:49 337 21.1
2019-Jun-26 04:44 20.6
2019-Jun-26 04:39 270 20.0
2019-Jun-26 04:34 337 19.4
2019-Jun-26 04:29 337 19.4
2019-Jun-26 04:24 18.9
2019-Jun-26 04:19 337 0 gusting 3 18.3
2019-Jun-26 04:14 337 1 gusting 2 17.8
2019-Jun-26 04:08 346 2 gusting 3 17.8
2019-Jun-26 04:03 337 1 gusting 5 17.2
2019-Jun-26 03:58 342 3 gusting 4 16.7
2019-Jun-26 03:53 337 1 gusting 2 16.7
2019-Jun-26 03:48 337 1 gusting 4 16.1
2019-Jun-26 03:43 090 16.1
2019-Jun-26 03:33 16.1
2019-Jun-26 03:28 16.1
2019-Jun-26 03:23 346 0 gusting 0 16.1
2019-Jun-26 03:18 337 0 gusting 1 16.1
2019-Jun-26 03:12 337 0 gusting 1 16.1
2019-Jun-26 03:07 16.1
2019-Jun-26 03:02 337 0 gusting 0 16.1
2019-Jun-26 02:57 342 16.1
2019-Jun-26 02:52 337 16.1
2019-Jun-26 02:47 337 1 gusting 2 16.1
2019-Jun-26 02:42 337 0 gusting 3 16.1
2019-Jun-26 02:37 270 0 gusting 2 15.6
2019-Jun-26 02:32 270 15.6
2019-Jun-26 02:27 270 0 gusting 1 15.6
2019-Jun-26 02:22 270 0 gusting 1 15.6
2019-Jun-26 02:17 270 0 gusting 2 15.6
2019-Jun-26 02:11 270 15.6
2019-Jun-26 02:06 270 2 gusting 3 15.6
2019-Jun-26 02:01 346 0 gusting 1 15.6
2019-Jun-26 01:56 15.6
2019-Jun-26 01:51 15.6
2019-Jun-26 01:46 15.6
2019-Jun-26 01:41 346 0 gusting 0 15.6
2019-Jun-26 01:36 346 0 gusting 1 15.0
2019-Jun-26 01:31 15.0
2019-Jun-26 01:26 15.0
2019-Jun-26 01:15 15.6
2019-Jun-26 01:10 346 15.6
2019-Jun-26 01:05 346 15.6
2019-Jun-26 01:00 15.6
2019-Jun-26 00:55 15.6
2019-Jun-26 00:50 15.6
2019-Jun-26 00:45 16.1
2019-Jun-26 00:40 16.1
2019-Jun-26 00:35 346 16.1
2019-Jun-26 00:30 16.1
2019-Jun-26 00:25 346 16.1
2019-Jun-26 00:20 16.1
2019-Jun-26 00:09 351 16.1
2019-Jun-26 00:04 270 0 gusting 2 16.1
2019-Jun-25 23:59 337 0 gusting 1 16.1
2019-Jun-25 23:54 337 16.1
2019-Jun-25 23:49 16.1
2019-Jun-25 23:44 337 16.7
2019-Jun-25 23:39 337 16.7
2019-Jun-25 23:34 337 16.7
2019-Jun-25 23:29 090 16.7
2019-Jun-25 23:24 337 17.2
2019-Jun-25 23:18 337 17.2
2019-Jun-25 23:13 337 1 gusting 2 17.2
2019-Jun-25 23:08 337 0 gusting 0 17.2
2019-Jun-25 23:03 337 17.2
2019-Jun-25 22:58 337 17.8
2019-Jun-25 22:53 225 17.8
2019-Jun-25 22:48 225 17.8
2019-Jun-25 22:43 337 0 gusting 0 18.3
2019-Jun-25 22:38 337 18.3
2019-Jun-25 22:33 337 18.3
2019-Jun-25 22:28 180 18.3
2019-Jun-25 22:23 180 18.9
2019-Jun-25 22:17 180 18.9
2019-Jun-25 22:12 180 18.9
2019-Jun-25 22:07 180 18.9
2019-Jun-25 22:02 180 18.9
2019-Jun-25 21:57 180 19.4
2019-Jun-25 21:52 180 19.4
2019-Jun-25 21:47 180 0 gusting 1 19.4
2019-Jun-25 21:42 180 0 gusting 2 19.4
2019-Jun-25 21:37 180 0 gusting 1 19.4
2019-Jun-25 21:32 180 1 gusting 2 19.4
2019-Jun-25 21:27 180 1 gusting 3 19.4
2019-Jun-25 21:22 180 2 gusting 3 19.4
2019-Jun-25 21:06 180 20.0
2019-Jun-25 21:01 324 2 gusting 4 20.6
2019-Jun-25 20:56 180 2 gusting 3 20.6
2019-Jun-25 20:51 180 2 gusting 4 20.6
2019-Jun-25 20:46 180 4 gusting 4 20.6
2019-Jun-25 20:41 180 4 gusting 5 20.6
2019-Jun-25 20:36 337 2 gusting 5 20.6
2019-Jun-25 20:31 180 6 gusting 6 21.1
2019-Jun-25 20:26 180 4 gusting 6 21.1
2019-Jun-25 20:20 180 3 gusting 5 21.1
2019-Jun-25 20:15 180 1 gusting 4 21.1
2019-Jun-25 20:10 180 1 gusting 3 21.1
2019-Jun-25 20:05 180 3 gusting 5 21.1
2019-Jun-25 20:00 180 3 gusting 3 21.1
2019-Jun-25 19:55 180 2 gusting 4 21.1
2019-Jun-25 19:50 180 2 gusting 4 21.1
2019-Jun-25 19:45 180 3 gusting 4 21.1
2019-Jun-25 19:40 180 1 gusting 2 21.1
2019-Jun-25 19:35 180 2 gusting 3 21.7
2019-Jun-25 19:30 180 1 gusting 4 21.7
2019-Jun-25 19:25 180 2 gusting 2 22.2
2019-Jun-25 19:19 180 0 gusting 1 22.2
2019-Jun-25 19:14 180 0 gusting 2 22.2
2019-Jun-25 19:09 180 1 gusting 5 22.8
2019-Jun-25 19:04 180 1 gusting 2 22.8
2019-Jun-25 18:59 180 1 gusting 3 23.3
2019-Jun-25 18:54 180 3 gusting 6 23.3
2019-Jun-25 18:49 180 3 gusting 3 23.3
2019-Jun-25 18:44 180 1 gusting 4 23.3
2019-Jun-25 18:39 180 2 gusting 6 23.9
2019-Jun-25 18:34 180 3 gusting 5 23.9
2019-Jun-25 18:29 180 1 gusting 6 23.9
2019-Jun-25 18:23 180 4 gusting 7 23.9
2019-Jun-25 18:18 180 23.9
2019-Jun-25 18:13 180 1 gusting 2 23.9
2019-Jun-25 18:08 180 23.9
2019-Jun-25 17:58 180 1 gusting 1 24.4
2019-Jun-25 17:53 135 24.4
2019-Jun-25 17:48 135 24.4
2019-Jun-25 17:43 135 24.4
2019-Jun-25 17:38 135 25.0
2019-Jun-25 17:33 135 25.0
2019-Jun-25 17:28 135 25.0
2019-Jun-25 17:22 135 1 gusting 1 25.0
2019-Jun-25 17:17 135 2 gusting 2 25.6
2019-Jun-25 17:12 135 1 gusting 2 25.6
2019-Jun-25 17:07 135 1 gusting 1 25.6
2019-Jun-25 17:02 135 0 gusting 1 26.1
2019-Jun-25 16:57 135 1 gusting 2 26.1
2019-Jun-25 16:52 135 26.7
2019-Jun-25 16:42 337 26.7
2019-Jun-25 16:37 337 26.7
2019-Jun-25 16:32 337 0 gusting 1 26.7
2019-Jun-25 16:26 337 26.1
2019-Jun-25 16:21 270 26.1
2019-Jun-25 16:16 270 26.1
2019-Jun-25 16:11 337 0 gusting 0 25.6
2019-Jun-25 16:01 337 1 gusting 2 25.0
2019-Jun-25 15:56 337 0 gusting 2 25.0
2019-Jun-25 15:51 337 2 gusting 4 25.0
2019-Jun-25 15:46 337 3 gusting 5 25.6
2019-Jun-25 15:41 337 4 gusting 6 25.6
2019-Jun-25 15:36 337 5 gusting 6 25.6
2019-Jun-25 15:30 337 7 gusting 7 25.0
2019-Jun-25 15:25 180 4 gusting 7 25.0
2019-Jun-25 15:15 180 6 gusting 11 25.6
2019-Jun-25 15:10 180 10 gusting 12 26.1
2019-Jun-25 09:04 135 10 gusting 11 23.9
2019-Jun-25 08:59 171 7 gusting 13 23.9
2019-Jun-25 07:12 135 8 gusting 10 20.0
2019-Jun-25 07:07 135 7 gusting 15 20.0
2019-Jun-25 06:57 135 5 gusting 9 19.4
2019-Jun-25 06:52 135 5 gusting 8 19.4
2019-Jun-25 06:47 135 10 gusting 10 19.4
2019-Jun-25 06:41 135 6 gusting 12 18.9
2019-Jun-25 06:36 144 5 gusting 10 18.3
2019-Jun-25 06:31 144 6 gusting 6 18.3
2019-Jun-25 06:26 099 6 gusting 9 18.3
2019-Jun-25 06:21 108 5 gusting 12 18.9
2019-Jun-25 06:16 126 4 gusting 8 18.3
2019-Jun-25 06:06 090 6 gusting 9 17.8
2019-Jun-25 06:01 135 3 gusting 7 17.8
2019-Jun-25 05:56 135 7 gusting 7 17.8
2019-Jun-25 05:51 090 1 gusting 7 17.8
2019-Jun-25 05:45 090 2 gusting 4 17.8
2019-Jun-25 05:40 135 2 gusting 3 17.8
2019-Jun-25 05:35 090 0 gusting 1 17.2
2019-Jun-25 05:25 135 0 gusting 2 17.2